Time;durP1;ratioP1;P1;durP2;ratioP2;P2;SDS_P1;SDS_P2;PMS_P1;PMS_P2;Temp;Humidity;BMP_temperature;BMP_pressure;BME280_temperature;BME280_humidity;BME280_pressure;Samples;Min_cycle;Max_cycle;Signal;HPM_P1;HPM_P2
2024/02/10 00:01:48;;;;;;;3.80;1.42;;;;;;;7.68;100.00;96544.75;6260131;22;20079;-62
2024/02/10 00:04:19;;;;;;;3.72;1.30;;;;;;;7.68;100.00;96549.09;6207296;22;20103;-62
2024/02/10 00:06:47;;;;;;;3.22;1.27;;;;;;;7.56;100.00;96535.81;6232186;22;20008;-67
2024/02/10 00:09:13;;;;;;;3.80;1.35;;;;;;;7.64;100.00;96537.50;6232152;22;20019;-66
2024/02/10 00:11:39;;;;;;;3.90;1.20;;;;;;;7.60;100.00;96531.88;6206502;22;20011;-61
2024/02/10 00:14:11;;;;;;;3.95;1.20;;;;;;;7.68;100.00;96533.59;6233638;22;20011;-61
2024/02/10 00:16:36;;;;;;;3.83;1.30;;;;;;;7.73;100.00;96536.44;6233252;22;20004;-62
2024/02/10 00:19:11;;;;;;;3.40;1.25;;;;;;;7.71;100.00;96533.25;6207449;22;20022;-60
2024/02/10 00:21:39;;;;;;;3.67;1.45;;;;;;;7.65;100.00;96529.59;6209933;22;20091;-60
2024/02/10 00:24:07;;;;;;;3.83;1.17;;;;;;;7.64;100.00;96527.16;6231863;22;20692;-65
2024/02/10 00:26:33;;;;;;;5.53;1.20;;;;;;;7.61;100.00;96533.50;6208759;22;20066;-67
2024/02/10 00:28:59;;;;;;;3.72;1.30;;;;;;;7.68;100.00;96537.00;6204746;22;20019;-62
2024/02/10 00:31:24;;;;;;;4.40;1.30;;;;;;;7.66;100.00;96538.13;6261581;22;20003;-66
2024/02/10 00:33:57;;;;;;;4.43;1.10;;;;;;;7.65;100.00;96533.97;6207351;22;20016;-61
2024/02/10 00:36:23;;;;;;;3.35;1.10;;;;;;;7.71;100.00;96530.66;6207287;22;20127;-62
2024/02/10 00:38:48;;;;;;;3.05;0.98;;;;;;;7.67;100.00;96526.81;6206346;22;20010;-62
2024/02/10 00:41:14;;;;;;;3.40;1.17;;;;;;;7.30;100.00;96490.47;6203848;22;20008;-61
2024/02/10 00:43:43;;;;;;;2.42;0.88;;;;;;;7.57;100.00;96523.69;6207582;22;20023;-64
2024/02/10 00:46:15;;;;;;;3.45;1.02;;;;;;;7.54;100.00;96519.69;6226746;22;20008;-60
2024/02/10 00:48:44;;;;;;;5.22;0.95;;;;;;;7.57;100.00;96518.50;6209470;22;20015;-61
2024/02/10 00:51:09;;;;;;;2.85;1.00;;;;;;;7.56;100.00;96514.34;6228804;22;20076;-60
2024/02/10 00:53:39;;;;;;;3.08;1.02;;;;;;;7.61;100.00;96517.16;6207123;22;20020;-61
2024/02/10 00:56:06;;;;;;;3.03;0.80;;;;;;;7.58;100.00;96509.78;6229776;22;20042;-60
2024/02/10 00:58:32;;;;;;;2.63;0.88;;;;;;;7.53;100.00;96506.91;6206637;22;20477;-63
2024/02/10 01:00:57;;;;;;;3.22;1.17;;;;;;;7.50;100.00;96520.97;6207480;22;20106;-60
2024/02/10 01:03:25;;;;;;;3.15;1.10;;;;;;;7.58;100.00;96514.94;6230960;22;20085;-62
2024/02/10 01:05:50;;;;;;;3.65;1.20;;;;;;;7.54;100.00;96506.75;6208112;22;20102;-61
2024/02/10 01:08:17;;;;;;;3.30;1.20;;;;;;;7.45;100.00;96518.94;6228964;22;20587;-60
2024/02/10 01:10:44;;;;;;;2.78;0.80;;;;;;;7.46;100.00;96505.03;6205299;22;20007;-61
2024/02/10 01:13:12;;;;;;;3.80;1.10;;;;;;;7.44;100.00;96503.59;6204712;22;20004;-60
2024/02/10 01:15:38;;;;;;;3.20;1.10;;;;;;;7.51;100.00;96494.94;6233413;22;20016;-61
2024/02/10 01:18:04;;;;;;;2.85;1.00;;;;;;;7.42;100.00;96490.84;6230089;22;20012;-65
2024/02/10 01:20:30;;;;;;;3.78;1.33;;;;;;;7.46;100.00;96497.25;6234104;22;20390;-64
2024/02/10 01:22:59;;;;;;;2.83;1.05;;;;;;;7.20;100.00;96451.16;6206918;22;20045;-65
2024/02/10 01:25:29;;;;;;;3.07;1.20;;;;;;;7.39;100.00;96487.81;6208732;22;20080;-65
2024/02/10 01:27:55;;;;;;;3.70;1.20;;;;;;;7.43;100.00;96486.47;6208116;22;20008;-64
2024/02/10 01:30:20;;;;;;;3.05;1.00;;;;;;;7.40;100.00;96486.84;6235440;22;20015;-61
2024/02/10 01:32:49;;;;;;;3.03;1.10;;;;;;;7.40;100.00;96479.88;6209714;22;20020;-64
2024/02/10 01:35:17;;;;;;;4.03;1.20;;;;;;;7.45;100.00;96485.31;6208026;22;20318;-61
2024/02/10 01:37:43;;;;;;;2.67;0.90;;;;;;;7.46;100.00;96471.41;6235615;22;20007;-61
2024/02/10 01:40:11;;;;;;;3.05;1.10;;;;;;;7.42;100.00;96475.31;6208063;22;20046;-61
2024/02/10 01:42:39;;;;;;;4.00;1.10;;;;;;;7.39;100.00;96459.38;6234385;22;20322;-60
2024/02/10 01:45:11;;;;;;;3.55;1.30;;;;;;;7.08;100.00;96414.59;6234402;22;20016;-61
2024/02/10 01:47:47;;;;;;;3.60;1.35;;;;;;;7.31;100.00;96468.00;6206847;22;20511;-62
2024/02/10 01:50:12;;;;;;;6.82;2.53;;;;;;;7.32;100.00;96460.09;6211433;22;20108;-61
2024/02/10 01:52:41;;;;;;;7.85;2.95;;;;;;;7.29;100.00;96459.63;6204956;22;20062;-63
2024/02/10 01:55:11;;;;;;;5.68;2.03;;;;;;;7.32;100.00;96454.91;6211994;22;20007;-61
2024/02/10 01:57:37;;;;;;;4.47;1.60;;;;;;;7.00;100.00;96399.16;6206723;22;20420;-61
2024/02/10 02:00:05;;;;;;;5.57;1.92;;;;;;;7.22;100.00;96444.00;6208199;22;20015;-63
2024/02/10 02:02:33;;;;;;;3.95;1.60;;;;;;;7.27;100.00;96446.09;6235994;22;20067;-68
2024/02/10 02:05:03;;;;;;;3.80;1.70;;;;;;;7.32;100.00;96441.19;6231905;22;20512;-63
2024/02/10 02:07:32;;;;;;;3.85;1.83;;;;;;;7.33;100.00;96437.59;6233818;22;20031;-63
2024/02/10 02:10:00;;;;;;;3.85;1.83;;;;;;;7.22;100.00;96432.88;6230750;22;20062;-64
2024/02/10 02:12:27;;;;;;;4.55;1.73;;;;;;;7.30;100.00;96433.59;6211158;22;20011;-61
2024/02/10 02:14:53;;;;;;;7.28;1.85;;;;;;;7.31;100.00;96429.22;6206696;22;20015;-63
2024/02/10 02:17:19;;;;;;;4.25;1.70;;;;;;;7.13;100.00;96383.03;6211668;22;20387;-63
2024/02/10 02:19:44;;;;;;;4.53;2.00;;;;;;;7.02;100.00;96366.19;6232876;22;20050;-61
2024/02/10 02:22:10;;;;;;;5.65;2.00;;;;;;;7.37;100.00;96423.34;6210323;22;20020;-61
2024/02/10 02:24:38;;;;;;;3.90;1.70;;;;;;;7.37;100.00;96422.53;6234402;22;20034;-62
2024/02/10 02:27:05;;;;;;;3.95;1.80;;;;;;;7.35;100.00;96425.31;6233453;22;20009;-64
2024/02/10 02:29:31;;;;;;;3.75;1.52;;;;;;;7.34;100.00;96422.91;6234316;22;20028;-65
2024/02/10 02:32:02;;;;;;;5.38;1.63;;;;;;;7.27;100.00;96412.47;6208477;22;20016;-62
2024/02/10 02:34:33;;;;;;;3.88;1.50;;;;;;;7.40;100.00;96407.47;6210969;22;20459;-61
2024/02/10 02:37:02;;;;;;;3.70;1.70;;;;;;;7.29;100.00;96400.97;6231740;22;20611;-61
2024/02/10 02:39:33;;;;;;;4.55;1.60;;;;;;;7.26;100.00;96393.56;6261954;22;20016;-61
2024/02/10 02:42:02;;;;;;;4.28;1.75;;;;;;;7.28;100.00;96401.97;6236327;22;20006;-60
2024/02/10 02:44:30;;;;;;;3.50;1.60;;;;;;;7.21;100.00;96397.66;6233793;22;20015;-61
2024/02/10 02:46:56;;;;;;;3.00;1.13;;;;;;;7.30;100.00;96396.59;6209163;22;20034;-61
2024/02/10 02:49:23;;;;;;;3.65;1.40;;;;;;;7.22;100.00;96396.69;6207445;22;20015;-62
2024/02/10 02:51:50;;;;;;;4.20;1.48;;;;;;;7.19;100.00;96403.03;6236405;22;20115;-61
2024/02/10 02:54:18;;;;;;;5.03;1.45;;;;;;;7.20;100.00;96401.25;6206172;22;20022;-64
2024/02/10 02:56:46;;;;;;;4.18;1.55;;;;;;;7.21;100.00;96395.91;6234348;22;20007;-61
2024/02/10 02:59:14;;;;;;;2.80;1.20;;;;;;;7.24;100.00;96400.69;6231817;22;20321;-63
2024/02/10 03:01:42;;;;;;;5.75;1.35;;;;;;;7.31;100.00;96403.38;6233402;22;20787;-60
2024/02/10 03:04:07;;;;;;;4.38;1.40;;;;;;;7.34;100.00;96389.28;6234309;22;20121;-61
2024/02/10 03:06:33;;;;;;;3.60;1.30;;;;;;;7.30;100.00;96388.84;6206734;22;20086;-61
2024/02/10 03:08:58;;;;;;;3.42;1.20;;;;;;;7.23;100.00;96396.53;6210746;22;20571;-60
2024/02/10 03:11:26;;;;;;;3.00;1.20;;;;;;;7.23;100.00;96390.56;6230725;22;20012;-61
2024/02/10 03:13:52;;;;;;;3.35;1.35;;;;;;;7.18;100.00;96380.75;6236818;22;20018;-61
2024/02/10 03:16:20;;;;;;;3.70;1.50;;;;;;;7.17;100.00;96375.75;6208918;22;20646;-60
2024/02/10 03:18:46;;;;;;;3.33;1.40;;;;;;;7.21;100.00;96376.97;6210406;22;20035;-63
2024/02/10 03:21:13;;;;;;;3.85;1.48;;;;;;;7.19;100.00;96379.78;6234471;22;20011;-62
2024/02/10 03:23:39;;;;;;;4.07;1.40;;;;;;;7.17;100.00;96368.78;6207524;22;20022;-62
2024/02/10 03:26:06;;;;;;;3.17;1.13;;;;;;;7.18;100.00;96352.31;6235153;22;20008;-61
2024/02/10 03:28:34;;;;;;;3.58;1.35;;;;;;;6.92;100.00;96314.00;6205378;22;20011;-63
2024/02/10 03:31:07;;;;;;;3.25;1.17;;;;;;;7.23;100.00;96369.88;6209996;22;20605;-61
2024/02/10 03:33:36;;;;;;;3.58;1.20;;;;;;;7.25;100.00;96375.66;6208873;22;20089;-62
2024/02/10 03:36:03;;;;;;;4.35;1.48;;;;;;;6.83;100.00;96310.69;6234990;22;20099;-64
2024/02/10 03:38:28;;;;;;;3.55;1.25;;;;;;;7.03;100.00;96339.38;6209507;22;20057;-61
2024/02/10 03:40:54;;;;;;;3.58;1.40;;;;;;;7.24;100.00;96361.91;6232611;22;20057;-63
2024/02/10 03:43:29;;;;;;;3.25;1.17;;;;;;;7.30;100.00;96363.00;6208627;22;20119;-60
2024/02/10 03:45:54;;;;;;;4.00;1.50;;;;;;;7.28;100.00;96364.94;6210583;22;20041;-63
2024/02/10 03:48:23;;;;;;;3.63;1.25;;;;;;;7.25;100.00;96360.16;6234373;22;20587;-61
2024/02/10 03:50:51;;;;;;;3.25;1.30;;;;;;;7.20;100.00;96359.88;6235141;22;20016;-62
2024/02/10 03:53:17;;;;;;;3.10;1.20;;;;;;;7.14;100.00;96343.31;6210975;22;20153;-63
2024/02/10 03:55:43;;;;;;;3.22;1.30;;;;;;;6.89;100.00;96297.06;6233749;22;20011;-64
2024/02/10 03:58:09;;;;;;;3.10;1.17;;;;;;;7.18;100.00;96349.72;6210636;22;20679;-61
2024/02/10 04:00:38;;;;;;;3.70;1.30;;;;;;;7.09;100.00;96343.03;6233157;22;20018;-62
2024/02/10 04:03:08;;;;;;;3.47;1.23;;;;;;;7.10;100.00;96345.44;6210025;22;20014;-61
2024/02/10 04:05:34;;;;;;;3.40;1.25;;;;;;;7.16;100.00;96343.13;6208320;22;20008;-62
2024/02/10 04:08:03;;;;;;;3.03;1.10;;;;;;;7.14;100.00;96348.47;6209515;22;20031;-61
2024/02/10 04:10:31;;;;;;;3.10;1.20;;;;;;;7.08;100.00;96342.25;6233829;22;20011;-62
2024/02/10 04:12:59;;;;;;;3.40;1.13;;;;;;;7.20;100.00;96347.75;6207002;22;20420;-62
2024/02/10 04:15:24;;;;;;;2.33;1.00;;;;;;;7.17;100.00;96348.09;6234227;22;20133;-66
2024/02/10 04:17:53;;;;;;;4.07;1.05;;;;;;;7.18;100.00;96343.75;6207478;22;20122;-62
2024/02/10 04:20:23;;;;;;;2.88;1.00;;;;;;;7.19;100.00;96343.59;6210916;22;20336;-61
2024/02/10 04:22:50;;;;;;;3.03;1.20;;;;;;;6.81;100.00;96292.00;6209290;22;20019;-60
2024/02/10 04:25:18;;;;;;;2.90;1.00;;;;;;;7.11;100.00;96338.50;6235219;22;20011;-63
2024/02/10 04:27:44;;;;;;;5.25;1.15;;;;;;;7.08;100.00;96329.31;6234387;22;20015;-60
2024/02/10 04:30:10;;;;;;;2.50;0.82;;;;;;;7.14;100.00;96335.56;6232180;22;20007;-60
2024/02/10 04:32:48;;;;;;;2.05;0.80;;;;;;;7.16;100.00;96327.63;6235509;22;20065;-61
2024/02/10 04:35:20;;;;;;;3.03;1.13;;;;;;;7.07;100.00;96322.53;6210333;22;20369;-63
2024/02/10 04:37:51;;;;;;;2.38;0.88;;;;;;;7.11;100.00;96318.59;6234599;22;20004;-62
2024/02/10 04:40:17;;;;;;;3.25;1.15;;;;;;;7.11;100.00;96317.81;6207785;22;20026;-61
2024/02/10 04:42:43;;;;;;;4.90;1.20;;;;;;;7.02;100.00;96303.38;6207753;22;20011;-62
2024/02/10 04:45:09;;;;;;;2.72;1.00;;;;;;;7.04;100.00;96307.38;6209240;22;20059;-62
2024/02/10 04:47:34;;;;;;;3.25;1.08;;;;;;;7.00;100.00;96300.19;6206208;22;20022;-62
2024/02/10 04:50:04;;;;;;;2.90;1.08;;;;;;;7.04;100.00;96307.38;6233480;22;20011;-61
2024/02/10 04:52:33;;;;;;;2.70;1.00;;;;;;;7.04;100.00;96299.63;6205483;22;20549;-61
2024/02/10 04:55:02;;;;;;;3.33;1.20;;;;;;;7.01;100.00;96279.34;6232594;22;20010;-62
2024/02/10 04:57:30;;;;;;;4.03;1.17;;;;;;;6.99;100.00;96286.47;6234756;22;20018;-62
2024/02/10 05:00:00;;;;;;;3.78;1.10;;;;;;;7.00;100.00;96280.31;6205345;22;20012;-63
2024/02/10 05:02:28;;;;;;;3.17;1.15;;;;;;;7.07;100.00;96288.16;6209235;22;20023;-62
2024/02/10 05:04:53;;;;;;;3.17;1.05;;;;;;;7.07;100.00;96276.03;6206240;22;20015;-62
2024/02/10 05:07:19;;;;;;;3.20;1.13;;;;;;;7.00;100.00;96275.13;6209818;22;20020;-61
2024/02/10 05:09:45;;;;;;;3.55;1.20;;;;;;;7.05;100.00;96278.00;6208988;22;20004;-62
2024/02/10 05:12:10;;;;;;;2.92;1.10;;;;;;;6.99;100.00;96276.13;6207129;22;20011;-61
2024/02/10 05:14:40;;;;;;;2.80;1.10;;;;;;;7.03;100.00;96274.78;6234133;22;20012;-62
2024/02/10 05:17:06;;;;;;;2.40;0.93;;;;;;;6.99;100.00;96270.16;6232748;22;20015;-62
2024/02/10 05:19:33;;;;;;;2.67;1.00;;;;;;;6.69;100.00;96236.59;6209969;22;20008;-61
2024/02/10 05:22:07;;;;;;;3.30;1.20;;;;;;;6.93;100.00;96263.91;6232635;22;20008;-62
2024/02/10 05:24:32;;;;;;;3.00;1.00;;;;;;;7.00;100.00;96275.13;6261762;22;20027;-61
2024/02/10 05:26:58;;;;;;;3.30;1.00;;;;;;;7.06;100.00;96286.53;6203690;22;20007;-62
2024/02/10 05:29:23;;;;;;;4.38;1.10;;;;;;;7.01;100.00;96275.94;6209516;22;20004;-61
2024/02/10 05:31:49;;;;;;;3.35;1.00;;;;;;;6.95;100.00;96261.16;6231220;22;20020;-60
2024/02/10 05:34:15;;;;;;;2.67;1.00;;;;;;;7.00;100.00;96257.06;6233545;22;20007;-60
2024/02/10 05:36:43;;;;;;;3.25;1.00;;;;;;;7.07;100.00;96273.44;6206643;22;20479;-61
2024/02/10 05:39:14;;;;;;;2.58;0.80;;;;;;;7.04;100.00;96267.84;6207134;22;20706;-62
2024/02/10 05:41:39;;;;;;;2.40;0.95;;;;;;;7.09;100.00;96276.66;6233514;22;20007;-60
2024/02/10 05:44:05;;;;;;;2.50;0.80;;;;;;;7.10;100.00;96278.25;6206574;22;20424;-60
2024/02/10 05:46:35;;;;;;;2.88;0.90;;;;;;;7.12;100.00;96278.88;6208232;22;20119;-65
2024/02/10 05:49:00;;;;;;;2.63;0.90;;;;;;;7.15;100.00;96279.50;6207974;22;20012;-63
2024/02/10 05:51:26;;;;;;;2.00;0.65;;;;;;;7.07;100.00;96280.41;6233818;22;20027;-60
2024/02/10 05:53:51;;;;;;;1.83;0.70;;;;;;;7.13;100.00;96274.50;6207666;22;20434;-61
2024/02/10 05:56:19;;;;;;;3.00;0.93;;;;;;;7.06;100.00;96271.84;6207681;22;20347;-61
2024/02/10 05:58:44;;;;;;;1.55;0.60;;;;;;;7.07;100.00;96276.03;6209434;22;20429;-61
2024/02/10 06:01:13;;;;;;;2.45;0.77;;;;;;;7.10;100.00;96277.44;6229641;22;20051;-61
2024/02/10 06:03:42;;;;;;;1.92;0.60;;;;;;;7.13;100.00;96272.72;6208576;22;20016;-60
2024/02/10 06:06:08;;;;;;;2.38;0.60;;;;;;;6.93;100.00;96248.41;6208171;22;20431;-60
2024/02/10 06:08:35;;;;;;;1.58;0.70;;;;;;;7.18;100.00;96286.91;6206968;22;20098;-60
2024/02/10 06:11:02;;;;;;;2.85;0.70;;;;;;;7.21;100.00;96287.34;6208583;22;20110;-62
2024/02/10 06:13:32;;;;;;;1.95;0.63;;;;;;;6.85;100.00;96248.53;6230668;22;20008;-62
2024/02/10 06:15:57;;;;;;;2.15;0.70;;;;;;;7.16;100.00;96294.81;6212109;22;20521;-60
2024/02/10 06:18:30;;;;;;;1.88;0.70;;;;;;;7.09;100.00;96299.91;6207164;22;20043;-59
2024/02/10 06:20:57;;;;;;;1.75;0.60;;;;;;;7.16;100.00;96305.16;6237133;22;20007;-60
2024/02/10 06:23:33;;;;;;;2.08;0.57;;;;;;;7.17;100.00;96300.78;6228196;22;20012;-60
2024/02/10 06:25:59;;;;;;;2.00;0.60;;;;;;;7.13;100.00;96301.13;6209916;22;20038;-61
2024/02/10 06:28:27;;;;;;;1.67;0.70;;;;;;;7.15;100.00;96302.75;6235119;22;20008;-64
2024/02/10 06:30:55;;;;;;;2.90;0.60;;;;;;;7.14;100.00;96304.53;6206517;22;20022;-58
2024/02/10 06:33:23;;;;;;;1.25;0.40;;;;;;;7.20;100.00;96303.81;6209680;22;20018;-64
2024/02/10 06:35:49;;;;;;;0.82;0.40;;;;;;;7.20;100.00;96314.16;6209555;22;20053;-61
2024/02/10 06:38:17;;;;;;;1.92;0.50;;;;;;;7.16;100.00;96315.50;6210479;22;20015;-62
2024/02/10 06:40:43;;;;;;;1.15;0.40;;;;;;;7.13;100.00;96324.41;6206958;22;20073;-60
2024/02/10 06:43:12;;;;;;;2.22;0.60;;;;;;;7.19;100.00;96328.09;6235775;22;20008;-64
2024/02/10 06:45:41;;;;;;;1.38;0.60;;;;;;;7.18;100.00;96323.09;6210006;22;20098;-60
2024/02/10 06:48:11;;;;;;;2.55;0.50;;;;;;;7.12;100.00;96322.03;6233740;22;20233;-60
2024/02/10 06:50:38;;;;;;;1.23;0.50;;;;;;;7.09;100.00;96317.19;6211086;22;20053;-61
2024/02/10 06:53:04;;;;;;;1.27;0.43;;;;;;;7.10;100.00;96314.44;6233397;22;20007;-61
2024/02/10 06:55:33;;;;;;;1.85;0.50;;;;;;;7.04;100.00;96309.19;6207000;22;20022;-60
2024/02/10 06:58:02;;;;;;;1.85;0.60;;;;;;;7.13;100.00;96326.19;6232911;22;20007;-62
2024/02/10 07:00:30;;;;;;;1.25;0.47;;;;;;;7.11;100.00;96322.97;6210409;22;20018;-62
2024/02/10 07:03:00;;;;;;;2.63;0.75;;;;;;;7.13;100.00;96324.41;6207333;22;20474;-62
2024/02/10 07:05:25;;;;;;;1.58;0.55;;;;;;;7.09;100.00;96318.00;6235840;22;20008;-61
2024/02/10 07:07:53;;;;;;;1.60;0.60;;;;;;;7.21;100.00;96328.69;6209841;22;20022;-62
2024/02/10 07:10:21;;;;;;;1.33;0.40;;;;;;;7.23;100.00;96329.31;6208058;22;20089;-61
2024/02/10 07:12:52;;;;;;;1.98;0.57;;;;;;;7.20;100.00;96326.28;6211192;22;20095;-61
2024/02/10 07:15:23;;;;;;;1.83;0.47;;;;;;;7.23;100.00;96328.53;6206663;22;20011;-61
2024/02/10 07:17:52;;;;;;;3.10;0.82;;;;;;;7.13;100.00;96324.41;6235714;22;20035;-61
2024/02/10 07:20:20;;;;;;;1.80;0.70;;;;;;;7.03;100.00;96326.47;6235585;22;20007;-60
2024/02/10 07:22:49;;;;;;;2.65;0.90;;;;;;;7.08;100.00;96331.91;6235030;22;20427;-61
2024/02/10 07:25:18;;;;;;;1.95;0.60;;;;;;;7.04;100.00;96333.22;6208122;22;20008;-63
2024/02/10 07:27:50;;;;;;;2.17;0.70;;;;;;;6.79;100.00;96287.97;6231363;22;20003;-62
2024/02/10 07:30:17;;;;;;;1.55;0.55;;;;;;;7.08;100.00;96339.66;6209914;22;20010;-61
2024/02/10 07:32:47;;;;;;;1.48;0.45;;;;;;;7.10;100.00;96350.63;6206743;22;20012;-61
2024/02/10 07:35:13;;;;;;;1.08;0.40;;;;;;;7.15;100.00;96336.34;6210103;22;20018;-61
2024/02/10 07:37:41;;;;;;;0.63;0.40;;;;;;;7.08;100.00;96336.25;6234843;22;20004;-60
2024/02/10 07:40:07;;;;;;;2.22;0.50;;;;;;;7.28;100.00;96349.44;6230598;22;20026;-62
2024/02/10 07:42:35;;;;;;;1.90;0.60;;;;;;;7.21;100.00;96349.38;6233597;22;20015;-62
2024/02/10 07:45:01;;;;;;;1.42;0.50;;;;;;;6.91;100.00;96295.09;6232830;22;20016;-63
2024/02/10 07:47:26;;;;;;;2.20;0.47;;;;;;;7.23;100.00;96347.41;6208318;22;20406;-60
2024/02/10 07:49:58;;;;;;;1.55;0.50;;;;;;;7.22;100.00;96339.81;6209292;22;20340;-63
2024/02/10 07:52:30;;;;;;;2.30;0.50;;;;;;;7.30;100.00;96355.22;6234110;22;20419;-62
2024/02/10 07:54:58;;;;;;;1.83;0.50;;;;;;;7.39;100.00;96355.94;6208862;22;20019;-64
2024/02/10 07:57:25;;;;;;;1.15;0.50;;;;;;;7.26;100.00;96349.63;6206153;22;20110;-60
2024/02/10 07:59:55;;;;;;;1.33;0.40;;;;;;;7.27;100.00;96359.00;6234188;22;20581;-60
2024/02/10 08:02:25;;;;;;;2.80;1.00;;;;;;;7.16;100.00;96335.38;6261402;22;20057;-61
2024/02/10 08:04:58;;;;;;;3.00;0.93;;;;;;;6.84;100.00;96278.69;6210657;22;20766;-61
2024/02/10 08:07:29;;;;;;;2.03;0.70;;;;;;;7.21;100.00;96333.88;6210126;22;20042;-64
2024/02/10 08:09:55;;;;;;;2.65;0.70;;;;;;;7.28;100.00;96336.53;6235507;22;20092;-62
2024/02/10 08:12:23;;;;;;;2.47;0.52;;;;;;;7.19;100.00;96333.25;6208267;22;20118;-61
2024/02/10 08:14:51;;;;;;;4.93;1.40;;;;;;;7.21;100.00;96344.22;6209871;22;20012;-63
2024/02/10 08:17:17;;;;;;;3.10;0.88;;;;;;;7.22;100.00;96342.41;6236500;22;20007;-63
2024/02/10 08:19:43;;;;;;;3.75;0.70;;;;;;;7.11;100.00;96328.94;6206970;22;20153;-65
2024/02/10 08:22:09;;;;;;;4.75;1.67;;;;;;;6.92;100.00;96288.97;6210585;22;20035;-63
2024/02/10 08:24:34;;;;;;;4.90;1.67;;;;;;;6.86;100.00;96266.44;6232356;22;20487;-62
2024/02/10 08:27:00;;;;;;;5.18;2.08;;;;;;;6.87;100.00;96272.38;6231820;22;20008;-62
2024/02/10 08:29:33;;;;;;;4.80;2.03;;;;;;;6.86;100.00;96263.03;6207827;22;20137;-63
2024/02/10 08:32:05;;;;;;;5.97;2.90;;;;;;;7.13;100.00;96306.31;6209403;22;20018;-63
2024/02/10 08:34:39;;;;;;;5.20;2.13;;;;;;;7.11;100.00;96308.28;6235785;22;20088;-64
2024/02/10 08:37:07;;;;;;;2.45;0.73;;;;;;;7.04;100.00;96297.03;6209270;22;20516;-63
2024/02/10 08:39:36;;;;;;;3.70;1.10;;;;;;;6.76;100.00;96252.97;6209614;22;20052;-62
2024/02/10 08:42:05;;;;;;;3.70;1.23;;;;;;;7.08;100.00;96292.31;6207562;22;20340;-63
2024/02/10 08:44:32;;;;;;;4.35;1.60;;;;;;;7.07;100.00;96288.16;6208971;22;20039;-64
2024/02/10 08:47:03;;;;;;;5.00;2.15;;;;;;;7.04;100.00;96283.34;6210345;22;20093;-62
2024/02/10 08:49:40;;;;;;;6.32;2.58;;;;;;;7.07;100.00;96281.19;6233080;22;20004;-60
2024/02/10 08:52:15;;;;;;;5.50;2.47;;;;;;;7.04;100.00;96281.53;6211021;22;20022;-61
2024/02/10 08:54:43;;;;;;;4.32;1.67;;;;;;;7.02;100.00;96282.72;6235266;22;20008;-61
2024/02/10 08:57:09;;;;;;;6.28;2.63;;;;;;;6.99;100.00;96283.88;6233780;22;20010;-63
2024/02/10 08:59:45;;;;;;;4.82;1.80;;;;;;;7.04;100.00;96283.34;6207101;22;20011;-61
2024/02/10 09:02:14;;;;;;;6.07;2.20;;;;;;;6.98;100.00;96269.34;6207026;22;20023;-62
2024/02/10 09:04:44;;;;;;;7.25;3.05;;;;;;;7.08;100.00;96285.41;6236161;22;20035;-62
2024/02/10 09:07:09;;;;;;;7.45;3.33;;;;;;;6.86;100.00;96242.34;6233034;22;20378;-62
2024/02/10 09:09:35;;;;;;;6.15;2.50;;;;;;;7.07;100.00;96285.56;6210197;22;20015;-61
2024/02/10 09:12:00;;;;;;;8.20;3.40;;;;;;;7.03;100.00;96274.78;6208058;22;20093;-62
2024/02/10 09:14:26;;;;;;;12.98;5.95;;;;;;;7.04;100.00;96266.03;6209228;22;20034;-63
2024/02/10 09:16:54;;;;;;;6.72;3.10;;;;;;;7.02;100.00;96280.13;6207675;22;20026;-62
2024/02/10 09:19:19;;;;;;;4.65;1.60;;;;;;;7.04;100.00;96268.63;6208713;22;20016;-65
2024/02/10 09:21:57;;;;;;;4.43;1.40;;;;;;;7.06;100.00;96284.78;6209723;22;20015;-60
2024/02/10 09:24:23;;;;;;;3.10;1.13;;;;;;;7.07;100.00;96281.19;6208810;22;20536;-61
2024/02/10 09:26:49;;;;;;;3.17;1.30;;;;;;;7.08;100.00;96271.66;6210438;22;20016;-65
2024/02/10 09:29:14;;;;;;;4.70;2.03;;;;;;;7.06;100.00;96273.63;6203248;22;20435;-62
2024/02/10 09:31:44;;;;;;;5.88;2.05;;;;;;;7.17;100.00;96272.38;6232178;22;20007;-66
2024/02/10 09:34:12;;;;;;;3.60;1.50;;;;;;;6.84;100.00;96223.66;6231109;22;20091;-62
2024/02/10 09:36:42;;;;;;;4.30;1.70;;;;;;;7.20;100.00;96279.75;6259488;22;20889;-60
2024/02/10 09:39:07;;;;;;;4.22;1.80;;;;;;;7.23;100.00;96269.88;6232729;22;20026;-63
2024/02/10 09:41:35;;;;;;;3.85;1.60;;;;;;;7.25;100.00;96274.88;6210321;22;20012;-63
2024/02/10 09:44:03;;;;;;;3.45;1.23;;;;;;;7.32;100.00;96268.78;6234461;22;20015;-67
2024/02/10 09:46:29;;;;;;;3.47;1.35;;;;;;;7.30;100.00;96272.50;6210880;22;20035;-61
2024/02/10 09:48:55;;;;;;;3.90;1.30;;;;;;;7.27;100.00;96278.84;6207420;22;20016;-64
2024/02/10 09:51:20;;;;;;;3.70;1.30;;;;;;;7.29;100.00;96271.72;6238242;22;20034;-63
2024/02/10 09:53:47;;;;;;;3.38;1.30;;;;;;;7.32;100.00;96283.50;6208071;22;20004;-62
2024/02/10 09:56:14;;;;;;;3.72;1.45;;;;;;;7.32;100.00;96283.50;6232798;22;20596;-66
2024/02/10 09:58:50;;;;;;;5.25;1.40;;;;;;;7.43;100.00;96282.19;6206259;22;20107;-61
2024/02/10 10:01:16;;;;;;;5.25;1.50;;;;;;;7.31;100.00;96266.38;6217631;22;20433;-62
2024/02/10 10:03:44;;;;;;;3.90;1.60;;;;;;;7.40;100.00;96275.63;6204676;23;20026;-62
2024/02/10 10:06:14;;;;;;;3.92;1.60;;;;;;;7.44;100.00;96268.31;6203832;23;20039;-66
2024/02/10 10:08:41;;;;;;;3.60;1.38;;;;;;;7.42;100.00;96268.47;6227777;23;20027;-61
2024/02/10 10:11:07;;;;;;;3.53;1.20;;;;;;;7.48;100.00;96272.13;6204836;22;20018;-63
2024/02/10 10:13:34;;;;;;;4.70;1.38;;;;;;;7.51;100.00;96279.53;6234783;22;20065;-61
2024/02/10 10:16:05;;;;;;;3.30;0.98;;;;;;;7.56;100.00;96273.81;6207798;22;20114;-59
2024/02/10 10:18:31;;;;;;;3.50;1.10;;;;;;;7.43;100.00;96271.84;6206826;22;20087;-64
2024/02/10 10:21:00;;;;;;;3.42;0.90;;;;;;;7.43;100.00;96270.09;6231385;22;20004;-63
2024/02/10 10:23:31;;;;;;;2.90;1.00;;;;;;;7.51;100.00;96274.34;6231662;22;20392;-63
2024/02/10 10:25:57;;;;;;;3.63;1.02;;;;;;;7.53;100.00;96274.19;6206647;22;20065;-63
2024/02/10 10:28:24;;;;;;;2.22;0.80;;;;;;;7.39;100.00;96258.53;6230088;22;20036;-61
2024/02/10 10:30:50;;;;;;;2.90;1.00;;;;;;;7.40;100.00;96260.09;6206647;22;20438;-62
2024/02/10 10:33:20;;;;;;;3.00;1.10;;;;;;;7.58;100.00;96275.22;6229901;22;20506;-63
2024/02/10 10:35:45;;;;;;;2.33;0.80;;;;;;;7.46;100.00;96272.28;6231519;22;20004;-62
2024/02/10 10:38:12;;;;;;;2.85;0.90;;;;;;;7.45;100.00;96265.53;6206014;22;20019;-62
2024/02/10 10:40:37;;;;;;;2.08;0.70;;;;;;;7.44;100.00;96270.88;6199438;22;20015;-62
2024/02/10 10:43:10;;;;;;;3.15;0.77;;;;;;;7.44;100.00;96263.13;6230645;22;20008;-60
2024/02/10 10:45:37;;;;;;;3.15;0.88;;;;;;;7.45;100.00;96257.78;6227272;22;20008;-63
2024/02/10 10:48:03;;;;;;;2.28;0.85;;;;;;;7.51;100.00;96262.22;6207449;22;20012;-63
2024/02/10 10:50:32;;;;;;;4.05;1.20;;;;;;;7.31;100.00;96230.97;6230359;22;20015;-63
2024/02/10 10:53:09;;;;;;;5.57;1.38;;;;;;;7.53;100.00;96266.41;6233181;22;20031;-62
2024/02/10 10:55:48;;;;;;;3.15;1.00;;;;;;;7.37;100.00;96257.09;6206589;22;20014;-62
2024/02/10 10:58:38;;;;;;;3.03;1.20;;;;;;;7.49;100.00;96271.16;6229504;22;20077;-61
2024/02/10 11:01:05;;;;;;;2.03;0.70;;;;;;;7.44;100.00;96270.88;6208252;22;20053;-63
2024/02/10 11:03:31;;;;;;;7.63;2.78;;;;;;;7.48;100.00;96254.03;6228471;22;20039;-63
2024/02/10 11:05:57;;;;;;;4.80;1.92;;;;;;;7.42;100.00;96245.22;6205702;22;20042;-62
2024/02/10 11:08:26;;;;;;;5.63;2.10;;;;;;;7.42;100.00;96241.84;6208203;22;20470;-61
2024/02/10 11:11:03;;;;;;;5.15;2.58;;;;;;;7.44;100.00;96245.03;6227288;22;20043;-65
2024/02/10 11:13:31;;;;;;;4.20;1.20;;;;;;;7.50;100.00;96239.13;6206078;22;20725;-62
2024/02/10 11:16:12;;;;;;;5.03;1.80;;;;;;;7.44;100.00;96242.44;6202559;22;20541;-61
2024/02/10 11:18:45;;;;;;;3.72;1.20;;;;;;;7.41;100.00;96247.97;6204818;22;20007;-62
2024/02/10 11:21:25;;;;;;;3.28;1.17;;;;;;;7.34;100.00;96235.00;6227849;22;20041;-60
2024/02/10 11:23:58;;;;;;;3.38;1.10;;;;;;;7.46;100.00;96250.81;6205581;22;20122;-62
2024/02/10 11:26:27;;;;;;;4.57;1.95;;;;;;;7.46;100.00;96243.06;6203833;22;20014;-62
2024/02/10 11:29:20;;;;;;;3.70;1.50;;;;;;;7.40;100.00;96229.09;6205731;22;20065;-62
2024/02/10 11:31:46;;;;;;;3.70;1.40;;;;;;;7.40;100.00;96218.75;6208051;22;20615;-60
2024/02/10 11:34:18;;;;;;;5.97;2.40;;;;;;;7.43;100.00;96233.06;6226192;22;20016;-62
2024/02/10 11:36:52;;;;;;;4.18;1.52;;;;;;;7.40;100.00;96221.31;6206588;22;20011;-65
2024/02/10 11:39:22;;;;;;;3.28;1.15;;;;;;;7.46;100.00;96225.75;6207602;22;20019;-60